עמוד ראשי
METAR-TAF:

METAR-TAF

שדות תעופה :

Lanzarote, ספרד

קו רוחב: 28-57N, קו אורך: 013-36W, גובה: 14מטר

תצפית מזג אוויר נוכחית

הדו"ח נערך לפני 44דקות, בשעה 23:00 UTC
רוח 15קשר מכיוון צפון/צפון-מזרח עם משבים עד 27קשר , משתנה בין צפון ו צפון-מזרח
טמפרטורת 20 צלסיוס
לחות 78%
לחץ 1019 hPa
ראות 10 קילומטר או יותר
עננים פזורים בגובה 1800רגל

METAR: GCRR 262300Z 02015G27KT 350V050 9999 SCT018 20/16 Q1019

זמן: 00:44 (23:44 UTC)

תחזית

הדו"ח נערך לפני 3 שעות ו 44דקות, בשעה 20:00 UTC
תחזית בתוקף מ 26 ב 21 UTC עד 27 ב 21 UTC
רוח 17קשר מכיוון צפון
ראות 10 קילומטר או יותר
מעט עננים בגובה 3000רגל
הסתברות 30% :
זמנית מ -
26 ב 21 UTC עד 27 ב 18 UTC
רוח 20קשר מכיוון צפון עם משבים עד 30קשר

TAF: GCRR 262000Z 2621/2721 01017KT 9999 FEW030 TX26/2714Z TN19/2706Z PROB30 TEMPO 2621/2718 01020G30KT

תצפיות ותחזיות מזג אוויר לגבי יותר מ- 4,000 שדות תעופה ברחבי העולם. דוחות METAR ו- TAF.

התחנות הזמינות מסומנות בנקודות צהובות ואדומות על גבי המפה.

העבר את העכבר לנקודה הצבעונית על מנת לראות את שם התחנה.

לאחר מכן, לחץ כדי לראות את תוכן ואת תחזיות מזג האוויר.

כדי לשנות את המפה: לחץ על הכפתורים הירוקים עם הפלוס השחור כדי להתקרב; על הכפתור הירוק עם המקף כדי להתרחק; או בחיצים הירוקים למפות סמוכות.


METAR-TAF: